sensor_id;sensor_type;location;lat;lon;timestamp;temperature;humidity
20839;DHT22;10580;51.092;6.828;2023-05-07T00:01:33;15.20;1.00
20839;DHT22;10580;51.092;6.828;2023-05-07T00:03:59;15.10;1.00
20839;DHT22;10580;51.092;6.828;2023-05-07T00:06:24;15.20;1.00
20839;DHT22;10580;51.092;6.828;2023-05-07T00:08:51;15.10;1.00
20839;DHT22;10580;51.092;6.828;2023-05-07T00:11:17;15.10;99.90
20839;DHT22;10580;51.092;6.828;2023-05-07T00:13:43;15.10;99.90
20839;DHT22;10580;51.092;6.828;2023-05-07T00:16:08;15.00;99.90
20839;DHT22;10580;51.092;6.828;2023-05-07T00:18:34;15.10;99.90
20839;DHT22;10580;51.092;6.828;2023-05-07T00:21:01;15.00;99.90
20839;DHT22;10580;51.092;6.828;2023-05-07T00:23:27;15.30;99.90
20839;DHT22;10580;51.092;6.828;2023-05-07T00:25:52;15.00;99.90
20839;DHT22;10580;51.092;6.828;2023-05-07T00:28:18;15.00;99.90
20839;DHT22;10580;51.092;6.828;2023-05-07T00:30:44;15.00;99.90
20839;DHT22;10580;51.092;6.828;2023-05-07T00:33:09;15.00;99.90
20839;DHT22;10580;51.092;6.828;2023-05-07T00:35:35;15.00;1.00
20839;DHT22;10580;51.092;6.828;2023-05-07T00:38:00;15.60;1.00
20839;DHT22;10580;51.092;6.828;2023-05-07T00:40:26;14.90;1.00
20839;DHT22;10580;51.092;6.828;2023-05-07T00:42:51;14.90;99.90
20839;DHT22;10580;51.092;6.828;2023-05-07T00:45:26;15.00;99.90
20839;DHT22;10580;51.092;6.828;2023-05-07T00:47:57;14.90;99.90
20839;DHT22;10580;51.092;6.828;2023-05-07T00:50:23;14.90;99.90
20839;DHT22;10580;51.092;6.828;2023-05-07T00:52:49;14.90;99.90
20839;DHT22;10580;51.092;6.828;2023-05-07T00:55:15;14.90;1.00
20839;DHT22;10580;51.092;6.828;2023-05-07T00:57:41;16.50;1.00
20839;DHT22;10580;51.092;6.828;2023-05-07T01:02:38;14.00;99.90
20839;DHT22;10580;51.092;6.828;2023-05-07T01:05:04;15.40;1.00
20839;DHT22;10580;51.092;6.828;2023-05-07T01:07:32;15.10;1.00
20839;DHT22;10580;51.092;6.828;2023-05-07T01:12:25;14.90;1.00
20839;DHT22;10580;51.092;6.828;2023-05-07T01:14:51;15.50;1.00
20839;DHT22;10580;51.092;6.828;2023-05-07T01:17:17;14.90;1.00
20839;DHT22;10580;51.092;6.828;2023-05-07T01:19:43;14.90;1.00
20839;DHT22;10580;51.092;6.828;2023-05-07T01:22:10;14.90;1.00
20839;DHT22;10580;51.092;6.828;2023-05-07T01:24:37;15.70;1.00
20839;DHT22;10580;51.092;6.828;2023-05-07T01:27:03;15.00;1.00
20839;DHT22;10580;51.092;6.828;2023-05-07T01:29:29;14.80;1.00
20839;DHT22;10580;51.092;6.828;2023-05-07T01:32:00;14.80;1.00
20839;DHT22;10580;51.092;6.828;2023-05-07T01:34:28;14.80;1.00
20839;DHT22;10580;51.092;6.828;2023-05-07T01:36:56;14.80;1.00
20839;DHT22;10580;51.092;6.828;2023-05-07T01:39:27;14.80;1.00
20839;DHT22;10580;51.092;6.828;2023-05-07T01:41:57;14.70;1.00
20839;DHT22;10580;51.092;6.828;2023-05-07T01:44:24;14.70;1.00
20839;DHT22;10580;51.092;6.828;2023-05-07T01:46:51;14.70;1.00
20839;DHT22;10580;51.092;6.828;2023-05-07T01:49:17;14.70;1.00
20839;DHT22;10580;51.092;6.828;2023-05-07T01:51:43;14.70;1.00
20839;DHT22;10580;51.092;6.828;2023-05-07T01:54:09;14.70;52.30
20839;DHT22;10580;51.092;6.828;2023-05-07T01:56:35;14.60;99.90
20839;DHT22;10580;51.092;6.828;2023-05-07T01:59:00;14.60;99.90
20839;DHT22;10580;51.092;6.828;2023-05-07T02:01:27;14.60;99.90
20839;DHT22;10580;51.092;6.828;2023-05-07T02:03:52;14.60;99.90
20839;DHT22;10580;51.092;6.828;2023-05-07T02:06:19;14.60;99.90
20839;DHT22;10580;51.092;6.828;2023-05-07T02:08:45;14.50;99.90
20839;DHT22;10580;51.092;6.828;2023-05-07T02:11:10;14.50;1.00
20839;DHT22;10580;51.092;6.828;2023-05-07T02:13:36;14.50;1.00
20839;DHT22;10580;51.092;6.828;2023-05-07T02:16:02;14.40;1.00
20839;DHT22;10580;51.092;6.828;2023-05-07T02:18:27;14.40;1.00
20839;DHT22;10580;51.092;6.828;2023-05-07T02:20:53;14.80;1.00
20839;DHT22;10580;51.092;6.828;2023-05-07T02:23:18;14.40;99.90
20839;DHT22;10580;51.092;6.828;2023-05-07T02:28:11;14.20;1.00
20839;DHT22;10580;51.092;6.828;2023-05-07T02:30:37;14.20;1.00
20839;DHT22;10580;51.092;6.828;2023-05-07T02:33:02;14.20;1.00
20839;DHT22;10580;51.092;6.828;2023-05-07T02:35:28;14.10;1.00
20839;DHT22;10580;51.092;6.828;2023-05-07T02:37:54;14.10;1.00
20839;DHT22;10580;51.092;6.828;2023-05-07T02:40:19;14.00;1.00
20839;DHT22;10580;51.092;6.828;2023-05-07T02:42:45;13.90;1.00
20839;DHT22;10580;51.092;6.828;2023-05-07T02:47:36;12.20;1.00
20839;DHT22;10580;51.092;6.828;2023-05-07T02:50:02;13.80;1.00
20839;DHT22;10580;51.092;6.828;2023-05-07T02:52:28;13.80;1.00
20839;DHT22;10580;51.092;6.828;2023-05-07T02:54:54;13.80;1.00
20839;DHT22;10580;51.092;6.828;2023-05-07T02:57:20;13.70;99.90
20839;DHT22;10580;51.092;6.828;2023-05-07T02:59:46;13.70;99.90
20839;DHT22;10580;51.092;6.828;2023-05-07T03:02:11;13.70;99.90
20839;DHT22;10580;51.092;6.828;2023-05-07T03:04:39;12.90;99.90
20839;DHT22;10580;51.092;6.828;2023-05-07T03:07:04;13.70;99.90
20839;DHT22;10580;51.092;6.828;2023-05-07T03:09:30;13.70;99.90
20839;DHT22;10580;51.092;6.828;2023-05-07T03:11:56;13.10;99.90
20839;DHT22;10580;51.092;6.828;2023-05-07T03:14:22;14.30;1.00
20839;DHT22;10580;51.092;6.828;2023-05-07T03:16:49;11.70;1.00
20839;DHT22;10580;51.092;6.828;2023-05-07T03:19:14;14.50;99.90
20839;DHT22;10580;51.092;6.828;2023-05-07T03:21:40;13.80;99.90
20839;DHT22;10580;51.092;6.828;2023-05-07T03:24:06;13.40;1.00
20839;DHT22;10580;51.092;6.828;2023-05-07T03:26:31;13.80;99.90
20839;DHT22;10580;51.092;6.828;2023-05-07T03:28:57;13.50;99.90
20839;DHT22;10580;51.092;6.828;2023-05-07T03:31:22;13.90;1.00
20839;DHT22;10580;51.092;6.828;2023-05-07T03:33:51;13.90;1.00
20839;DHT22;10580;51.092;6.828;2023-05-07T03:36:17;13.90;1.00
20839;DHT22;10580;51.092;6.828;2023-05-07T03:38:43;13.90;99.90
20839;DHT22;10580;51.092;6.828;2023-05-07T03:41:09;13.90;1.00
20839;DHT22;10580;51.092;6.828;2023-05-07T03:43:34;13.90;1.00
20839;DHT22;10580;51.092;6.828;2023-05-07T03:46:00;13.90;99.90
20839;DHT22;10580;51.092;6.828;2023-05-07T03:48:25;13.90;83.40
20839;DHT22;10580;51.092;6.828;2023-05-07T03:50:51;13.90;14.20
20839;DHT22;10580;51.092;6.828;2023-05-07T03:53:17;13.90;99.90
20839;DHT22;10580;51.092;6.828;2023-05-07T03:55:42;13.90;1.00
20839;DHT22;10580;51.092;6.828;2023-05-07T03:58:08;13.90;1.00
20839;DHT22;10580;51.092;6.828;2023-05-07T04:00:33;13.90;1.00
20839;DHT22;10580;51.092;6.828;2023-05-07T04:03:03;13.90;1.00
20839;DHT22;10580;51.092;6.828;2023-05-07T04:05:30;13.90;1.00
20839;DHT22;10580;51.092;6.828;2023-05-07T04:07:57;14.00;1.00
20839;DHT22;10580;51.092;6.828;2023-05-07T04:10:22;14.00;99.90
20839;DHT22;10580;51.092;6.828;2023-05-07T04:12:48;14.00;99.90
20839;DHT22;10580;51.092;6.828;2023-05-07T04:15:14;14.00;1.00
20839;DHT22;10580;51.092;6.828;2023-05-07T04:17:39;14.00;99.90
20839;DHT22;10580;51.092;6.828;2023-05-07T04:20:10;14.00;1.00
20839;DHT22;10580;51.092;6.828;2023-05-07T04:22:36;14.00;1.00
20839;DHT22;10580;51.092;6.828;2023-05-07T04:25:02;14.10;99.90
20839;DHT22;10580;51.092;6.828;2023-05-07T04:27:28;14.10;1.00
20839;DHT22;10580;51.092;6.828;2023-05-07T04:29:53;14.10;1.00
20839;DHT22;10580;51.092;6.828;2023-05-07T04:32:21;14.90;1.00
20839;DHT22;10580;51.092;6.828;2023-05-07T04:34:47;13.70;1.00
20839;DHT22;10580;51.092;6.828;2023-05-07T04:37:13;13.90;1.00
20839;DHT22;10580;51.092;6.828;2023-05-07T04:39:38;14.30;99.90
20839;DHT22;10580;51.092;6.828;2023-05-07T04:42:04;14.20;1.00
20839;DHT22;10580;51.092;6.828;2023-05-07T04:44:30;14.10;1.00
20839;DHT22;10580;51.092;6.828;2023-05-07T04:46:56;14.40;1.00
20839;DHT22;10580;51.092;6.828;2023-05-07T04:49:22;14.30;1.00
20839;DHT22;10580;51.092;6.828;2023-05-07T04:51:47;14.50;1.00
20839;DHT22;10580;51.092;6.828;2023-05-07T04:54:13;14.60;99.90
20839;DHT22;10580;51.092;6.828;2023-05-07T04:56:39;14.70;99.90
20839;DHT22;10580;51.092;6.828;2023-05-07T04:59:04;14.80;1.00
20839;DHT22;10580;51.092;6.828;2023-05-07T05:01:31;14.80;1.00
20839;DHT22;10580;51.092;6.828;2023-05-07T05:03:56;15.00;1.00
20839;DHT22;10580;51.092;6.828;2023-05-07T05:06:22;15.10;1.00
20839;DHT22;10580;51.092;6.828;2023-05-07T05:08:47;15.10;99.90
20839;DHT22;10580;51.092;6.828;2023-05-07T05:11:13;15.10;99.90
20839;DHT22;10580;51.092;6.828;2023-05-07T05:13:38;15.10;37.30
20839;DHT22;10580;51.092;6.828;2023-05-07T05:16:04;15.10;3.70
20839;DHT22;10580;51.092;6.828;2023-05-07T05:18:31;15.10;17.00
20839;DHT22;10580;51.092;6.828;2023-05-07T05:20:56;15.10;1.00
20839;DHT22;10580;51.092;6.828;2023-05-07T05:23:22;15.00;99.90
20839;DHT22;10580;51.092;6.828;2023-05-07T05:25:47;15.20;1.00
20839;DHT22;10580;51.092;6.828;2023-05-07T05:28:13;15.20;1.00
20839;DHT22;10580;51.092;6.828;2023-05-07T05:30:39;15.20;1.00
20839;DHT22;10580;51.092;6.828;2023-05-07T05:33:05;15.20;1.00
20839;DHT22;10580;51.092;6.828;2023-05-07T05:35:30;15.20;1.00
20839;DHT22;10580;51.092;6.828;2023-05-07T05:37:57;15.30;1.00
20839;DHT22;10580;51.092;6.828;2023-05-07T05:40:22;15.30;1.00
20839;DHT22;10580;51.092;6.828;2023-05-07T05:42:48;15.30;1.00
20839;DHT22;10580;51.092;6.828;2023-05-07T05:45:13;15.20;1.00
20839;DHT22;10580;51.092;6.828;2023-05-07T05:47:39;15.20;1.00
20839;DHT22;10580;51.092;6.828;2023-05-07T05:50:06;15.20;1.00
20839;DHT22;10580;51.092;6.828;2023-05-07T05:52:32;15.20;1.00
20839;DHT22;10580;51.092;6.828;2023-05-07T05:54:57;15.20;1.00
20839;DHT22;10580;51.092;6.828;2023-05-07T05:57:23;15.30;1.00
20839;DHT22;10580;51.092;6.828;2023-05-07T05:59:48;15.30;1.00
20839;DHT22;10580;51.092;6.828;2023-05-07T06:02:14;15.30;1.00
20839;DHT22;10580;51.092;6.828;2023-05-07T06:04:40;15.40;1.00
20839;DHT22;10580;51.092;6.828;2023-05-07T06:07:05;15.40;1.00
20839;DHT22;10580;51.092;6.828;2023-05-07T06:09:31;15.50;1.00
20839;DHT22;10580;51.092;6.828;2023-05-07T06:11:56;15.50;1.00
20839;DHT22;10580;51.092;6.828;2023-05-07T06:14:22;15.60;1.00
20839;DHT22;10580;51.092;6.828;2023-05-07T06:16:48;15.60;1.00
20839;DHT22;10580;51.092;6.828;2023-05-07T06:19:13;15.60;1.00
20839;DHT22;10580;51.092;6.828;2023-05-07T06:21:39;15.70;1.00
20839;DHT22;10580;51.092;6.828;2023-05-07T06:24:05;15.80;1.00
20839;DHT22;10580;51.092;6.828;2023-05-07T06:26:31;15.90;1.00
20839;DHT22;10580;51.092;6.828;2023-05-07T06:28:57;16.00;1.00
20839;DHT22;10580;51.092;6.828;2023-05-07T06:31:22;16.30;1.00
20839;DHT22;10580;51.092;6.828;2023-05-07T06:33:49;16.50;1.00
20839;DHT22;10580;51.092;6.828;2023-05-07T06:36:15;17.00;1.00
20839;DHT22;10580;51.092;6.828;2023-05-07T06:38:40;17.40;1.00
20839;DHT22;10580;51.092;6.828;2023-05-07T06:41:06;17.50;1.00
20839;DHT22;10580;51.092;6.828;2023-05-07T06:43:32;17.60;99.90
20839;DHT22;10580;51.092;6.828;2023-05-07T06:45:58;17.50;99.90
20839;DHT22;10580;51.092;6.828;2023-05-07T06:48:23;17.50;99.90
20839;DHT22;10580;51.092;6.828;2023-05-07T06:50:49;17.40;99.90
20839;DHT22;10580;51.092;6.828;2023-05-07T06:53:15;17.50;99.90
20839;DHT22;10580;51.092;6.828;2023-05-07T06:55:41;17.40;99.90
20839;DHT22;10580;51.092;6.828;2023-05-07T06:58:07;17.50;99.90
20839;DHT22;10580;51.092;6.828;2023-05-07T07:00:32;17.80;99.90
20839;DHT22;10580;51.092;6.828;2023-05-07T07:02:58;18.30;99.90
20839;DHT22;10580;51.092;6.828;2023-05-07T07:05:25;19.00;99.90
20839;DHT22;10580;51.092;6.828;2023-05-07T07:07:50;19.70;99.90
20839;DHT22;10580;51.092;6.828;2023-05-07T07:10:22;19.80;32.00
20839;DHT22;10580;51.092;6.828;2023-05-07T07:12:48;19.80;3.90
20839;DHT22;10580;51.092;6.828;2023-05-07T07:15:14;19.70;1.00
20839;DHT22;10580;51.092;6.828;2023-05-07T07:17:40;19.60;1.00
20839;DHT22;10580;51.092;6.828;2023-05-07T07:20:06;19.60;1.00
20839;DHT22;10580;51.092;6.828;2023-05-07T07:22:32;19.70;1.00
20839;DHT22;10580;51.092;6.828;2023-05-07T07:24:57;20.00;1.00
20839;DHT22;10580;51.092;6.828;2023-05-07T07:27:23;20.40;1.00
20839;DHT22;10580;51.092;6.828;2023-05-07T07:29:49;20.70;1.00
20839;DHT22;10580;51.092;6.828;2023-05-07T07:32:14;20.90;1.00
20839;DHT22;10580;51.092;6.828;2023-05-07T07:34:40;21.40;1.00
20839;DHT22;10580;51.092;6.828;2023-05-07T07:37:05;22.10;1.00
20839;DHT22;10580;51.092;6.828;2023-05-07T07:39:35;22.50;1.00
20839;DHT22;10580;51.092;6.828;2023-05-07T07:42:02;22.70;1.00
20839;DHT22;10580;51.092;6.828;2023-05-07T07:44:28;23.10;1.00
20839;DHT22;10580;51.092;6.828;2023-05-07T07:46:54;23.50;1.00
20839;DHT22;10580;51.092;6.828;2023-05-07T07:49:19;23.80;1.00
20839;DHT22;10580;51.092;6.828;2023-05-07T07:51:45;24.20;1.00
20839;DHT22;10580;51.092;6.828;2023-05-07T07:54:10;24.30;1.00
20839;DHT22;10580;51.092;6.828;2023-05-07T07:56:36;23.80;1.00
20839;DHT22;10580;51.092;6.828;2023-05-07T07:59:02;23.40;1.00
20839;DHT22;10580;51.092;6.828;2023-05-07T08:04:46;22.90;1.00
20839;DHT22;10580;51.092;6.828;2023-05-07T08:07:12;23.20;1.00
20839;DHT22;10580;51.092;6.828;2023-05-07T08:09:38;23.20;1.00
20839;DHT22;10580;51.092;6.828;2023-05-07T08:12:04;23.30;1.00
20839;DHT22;10580;51.092;6.828;2023-05-07T08:14:30;23.10;1.00
20839;DHT22;10580;51.092;6.828;2023-05-07T08:16:56;23.00;1.00
20839;DHT22;10580;51.092;6.828;2023-05-07T08:19:22;22.90;1.00
20839;DHT22;10580;51.092;6.828;2023-05-07T08:21:48;23.00;99.90
20839;DHT22;10580;51.092;6.828;2023-05-07T08:24:14;23.00;99.90
20839;DHT22;10580;51.092;6.828;2023-05-07T08:26:40;23.00;99.90
20839;DHT22;10580;51.092;6.828;2023-05-07T08:29:06;23.20;99.90
20839;DHT22;10580;51.092;6.828;2023-05-07T08:31:32;23.40;99.90
20839;DHT22;10580;51.092;6.828;2023-05-07T08:33:58;23.90;99.90
20839;DHT22;10580;51.092;6.828;2023-05-07T08:36:24;24.30;99.90
20839;DHT22;10580;51.092;6.828;2023-05-07T08:38:51;24.40;99.90
20839;DHT22;10580;51.092;6.828;2023-05-07T08:41:17;24.50;99.90
20839;DHT22;10580;51.092;6.828;2023-05-07T08:43:47;24.70;99.90
20839;DHT22;10580;51.092;6.828;2023-05-07T08:46:17;25.10;99.90
20839;DHT22;10580;51.092;6.828;2023-05-07T08:48:44;25.70;99.90
20839;DHT22;10580;51.092;6.828;2023-05-07T08:51:13;25.90;99.90
20839;DHT22;10580;51.092;6.828;2023-05-07T08:53:40;25.60;99.90
20839;DHT22;10580;51.092;6.828;2023-05-07T08:56:08;25.50;1.00
20839;DHT22;10580;51.092;6.828;2023-05-07T08:58:34;25.30;1.00
20839;DHT22;10580;51.092;6.828;2023-05-07T09:01:04;25.00;99.90
20839;DHT22;10580;51.092;6.828;2023-05-07T09:03:32;24.90;99.90
20839;DHT22;10580;51.092;6.828;2023-05-07T09:05:58;25.70;1.00
20839;DHT22;10580;51.092;6.828;2023-05-07T09:08:27;25.10;99.90
20839;DHT22;10580;51.092;6.828;2023-05-07T09:10:53;25.30;99.90
20839;DHT22;10580;51.092;6.828;2023-05-07T09:13:19;25.30;99.90
20839;DHT22;10580;51.092;6.828;2023-05-07T09:15:45;25.30;1.00
20839;DHT22;10580;51.092;6.828;2023-05-07T09:18:12;25.10;1.00
20839;DHT22;10580;51.092;6.828;2023-05-07T09:20:38;24.90;1.00
20839;DHT22;10580;51.092;6.828;2023-05-07T09:23:04;24.70;1.00
20839;DHT22;10580;51.092;6.828;2023-05-07T09:25:31;24.70;99.90
20839;DHT22;10580;51.092;6.828;2023-05-07T09:27:58;24.50;99.90
20839;DHT22;10580;51.092;6.828;2023-05-07T09:30:30;24.40;1.00
20839;DHT22;10580;51.092;6.828;2023-05-07T09:33:00;24.70;99.90
20839;DHT22;10580;51.092;6.828;2023-05-07T09:35:26;24.70;1.00
20839;DHT22;10580;51.092;6.828;2023-05-07T09:37:56;25.10;99.90
20839;DHT22;10580;51.092;6.828;2023-05-07T09:40:23;25.20;99.90
20839;DHT22;10580;51.092;6.828;2023-05-07T09:42:50;25.70;1.00
20839;DHT22;10580;51.092;6.828;2023-05-07T09:45:28;25.80;1.00
20839;DHT22;10580;51.092;6.828;2023-05-07T09:47:56;26.10;1.00
20839;DHT22;10580;51.092;6.828;2023-05-07T09:50:46;26.70;1.00
20839;DHT22;10580;51.092;6.828;2023-05-07T09:53:14;26.60;1.00
20839;DHT22;10580;51.092;6.828;2023-05-07T09:55:40;26.70;1.00
20839;DHT22;10580;51.092;6.828;2023-05-07T09:58:07;26.50;99.90
20839;DHT22;10580;51.092;6.828;2023-05-07T10:00:33;25.80;99.90
20839;DHT22;10580;51.092;6.828;2023-05-07T10:03:00;25.50;99.90
20839;DHT22;10580;51.092;6.828;2023-05-07T10:05:27;25.40;99.90
20839;DHT22;10580;51.092;6.828;2023-05-07T10:07:53;25.20;1.00
20839;DHT22;10580;51.092;6.828;2023-05-07T10:10:19;25.10;1.00
20839;DHT22;10580;51.092;6.828;2023-05-07T10:12:45;25.40;1.00
20839;DHT22;10580;51.092;6.828;2023-05-07T10:17:38;25.90;99.90
20839;DHT22;10580;51.092;6.828;2023-05-07T10:20:08;25.50;1.00
20839;DHT22;10580;51.092;6.828;2023-05-07T10:22:48;25.70;99.90
20839;DHT22;10580;51.092;6.828;2023-05-07T10:25:21;25.90;99.90
20839;DHT22;10580;51.092;6.828;2023-05-07T10:27:49;26.10;99.90
20839;DHT22;10580;51.092;6.828;2023-05-07T10:32:53;26.10;99.90
20839;DHT22;10580;51.092;6.828;2023-05-07T10:35:26;26.40;99.90
20839;DHT22;10580;51.092;6.828;2023-05-07T10:37:52;26.70;99.90
20839;DHT22;10580;51.092;6.828;2023-05-07T10:40:20;26.80;42.90
20839;DHT22;10580;51.092;6.828;2023-05-07T10:43:00;26.80;97.50
20839;DHT22;10580;51.092;6.828;2023-05-07T10:45:26;26.70;99.90
20839;DHT22;10580;51.092;6.828;2023-05-07T10:48:09;26.80;15.50
20839;DHT22;10580;51.092;6.828;2023-05-07T10:50:36;27.00;99.90
20839;DHT22;10580;51.092;6.828;2023-05-07T10:56:36;26.70;99.90
20839;DHT22;10580;51.092;6.828;2023-05-07T10:58:55;26.90;1.00
20839;DHT22;10580;51.092;6.828;2023-05-07T11:01:58;27.00;99.90
20839;DHT22;10580;51.092;6.828;2023-05-07T11:04:25;27.50;99.90
20839;DHT22;10580;51.092;6.828;2023-05-07T11:12:47;26.70;89.10
20839;DHT22;10580;51.092;6.828;2023-05-07T11:15:13;26.40;99.90
20839;DHT22;10580;51.092;6.828;2023-05-07T11:17:54;26.40;99.90
20839;DHT22;10580;51.092;6.828;2023-05-07T11:20:20;26.40;99.90
20839;DHT22;10580;51.092;6.828;2023-05-07T11:22:46;26.20;99.90
20839;DHT22;10580;51.092;6.828;2023-05-07T11:25:17;26.70;99.90
20839;DHT22;10580;51.092;6.828;2023-05-07T11:30:16;27.10;99.90
20839;DHT22;10580;51.092;6.828;2023-05-07T11:32:42;27.70;99.90
20839;DHT22;10580;51.092;6.828;2023-05-07T11:35:08;27.10;60.20
20839;DHT22;10580;51.092;6.828;2023-05-07T11:37:34;26.90;99.90
20839;DHT22;10580;51.092;6.828;2023-05-07T11:40:09;26.80;99.90
20839;DHT22;10580;51.092;6.828;2023-05-07T11:42:37;26.10;99.90
20839;DHT22;10580;51.092;6.828;2023-05-07T11:45:04;26.30;99.90
20839;DHT22;10580;51.092;6.828;2023-05-07T11:47:31;26.00;1.00
20839;DHT22;10580;51.092;6.828;2023-05-07T11:52:24;25.90;1.00
20839;DHT22;10580;51.092;6.828;2023-05-07T11:54:57;25.80;1.00
20839;DHT22;10580;51.092;6.828;2023-05-07T11:57:24;25.80;99.90
20839;DHT22;10580;51.092;6.828;2023-05-07T11:59:57;25.80;1.00
20839;DHT22;10580;51.092;6.828;2023-05-07T12:02:23;25.90;1.00
20839;DHT22;10580;51.092;6.828;2023-05-07T12:04:50;26.20;1.00
20839;DHT22;10580;51.092;6.828;2023-05-07T12:07:16;25.90;1.00
20839;DHT22;10580;51.092;6.828;2023-05-07T12:09:44;26.00;1.00
20839;DHT22;10580;51.092;6.828;2023-05-07T12:12:10;26.30;1.00
20839;DHT22;10580;51.092;6.828;2023-05-07T12:14:41;26.30;1.00
20839;DHT22;10580;51.092;6.828;2023-05-07T12:17:11;26.40;1.00
20839;DHT22;10580;51.092;6.828;2023-05-07T12:19:38;26.20;1.00
20839;DHT22;10580;51.092;6.828;2023-05-07T12:22:05;25.90;1.00
20839;DHT22;10580;51.092;6.828;2023-05-07T12:24:58;25.90;1.00
20839;DHT22;10580;51.092;6.828;2023-05-07T12:27:25;25.70;1.00
20839;DHT22;10580;51.092;6.828;2023-05-07T12:29:51;25.50;1.00
20839;DHT22;10580;51.092;6.828;2023-05-07T12:32:21;25.30;1.00
20839;DHT22;10580;51.092;6.828;2023-05-07T12:34:49;25.20;1.00
20839;DHT22;10580;51.092;6.828;2023-05-07T12:37:15;25.00;33.10
20839;DHT22;10580;51.092;6.828;2023-05-07T12:43:19;24.60;93.90
20839;DHT22;10580;51.092;6.828;2023-05-07T12:45:47;24.40;41.50
20839;DHT22;10580;51.092;6.828;2023-05-07T12:48:13;24.20;1.00
20839;DHT22;10580;51.092;6.828;2023-05-07T12:50:39;24.00;1.00
20839;DHT22;10580;51.092;6.828;2023-05-07T12:53:06;24.00;1.00
20839;DHT22;10580;51.092;6.828;2023-05-07T12:55:40;23.90;1.00
20839;DHT22;10580;51.092;6.828;2023-05-07T12:58:06;23.80;1.00
20839;DHT22;10580;51.092;6.828;2023-05-07T13:00:34;23.80;1.00
20839;DHT22;10580;51.092;6.828;2023-05-07T13:02:59;23.80;1.00
20839;DHT22;10580;51.092;6.828;2023-05-07T13:05:25;23.80;1.00
20839;DHT22;10580;51.092;6.828;2023-05-07T13:07:56;23.80;1.00
20839;DHT22;10580;51.092;6.828;2023-05-07T13:10:27;23.90;1.00
20839;DHT22;10580;51.092;6.828;2023-05-07T13:12:53;24.00;1.00
20839;DHT22;10580;51.092;6.828;2023-05-07T13:15:19;24.50;99.90
20839;DHT22;10580;51.092;6.828;2023-05-07T13:17:45;24.10;1.00
20839;DHT22;10580;51.092;6.828;2023-05-07T13:20:11;24.10;1.00
20839;DHT22;10580;51.092;6.828;2023-05-07T13:22:38;24.00;1.00
20839;DHT22;10580;51.092;6.828;2023-05-07T13:25:04;24.10;1.00
20839;DHT22;10580;51.092;6.828;2023-05-07T13:27:30;24.00;1.00
20839;DHT22;10580;51.092;6.828;2023-05-07T13:30:02;24.00;1.00
20839;DHT22;10580;51.092;6.828;2023-05-07T13:32:28;24.00;1.00
20839;DHT22;10580;51.092;6.828;2023-05-07T13:34:54;23.90;1.00
20839;DHT22;10580;51.092;6.828;2023-05-07T13:37:19;23.90;1.00
20839;DHT22;10580;51.092;6.828;2023-05-07T13:39:45;23.90;1.00
20839;DHT22;10580;51.092;6.828;2023-05-07T13:42:11;23.60;1.00
20839;DHT22;10580;51.092;6.828;2023-05-07T13:44:36;23.50;1.00
20839;DHT22;10580;51.092;6.828;2023-05-07T13:47:02;23.40;1.00
20839;DHT22;10580;51.092;6.828;2023-05-07T13:49:27;23.20;1.00
20839;DHT22;10580;51.092;6.828;2023-05-07T13:51:53;23.00;1.00
20839;DHT22;10580;51.092;6.828;2023-05-07T13:54:19;22.80;1.00
20839;DHT22;10580;51.092;6.828;2023-05-07T13:56:44;22.50;99.90
20839;DHT22;10580;51.092;6.828;2023-05-07T13:59:10;22.30;99.90
20839;DHT22;10580;51.092;6.828;2023-05-07T14:01:35;22.20;99.90
20839;DHT22;10580;51.092;6.828;2023-05-07T14:04:01;22.20;99.90
20839;DHT22;10580;51.092;6.828;2023-05-07T14:06:26;22.00;99.90
20839;DHT22;10580;51.092;6.828;2023-05-07T14:08:52;21.80;1.00
20839;DHT22;10580;51.092;6.828;2023-05-07T14:11:18;21.70;52.20
20839;DHT22;10580;51.092;6.828;2023-05-07T14:13:43;21.50;9.20
20839;DHT22;10580;51.092;6.828;2023-05-07T14:16:09;21.30;99.90
20839;DHT22;10580;51.092;6.828;2023-05-07T14:23:28;18.50;99.90
20839;DHT22;10580;51.092;6.828;2023-05-07T14:25:54;20.60;99.90
20839;DHT22;10580;51.092;6.828;2023-05-07T14:28:19;20.60;1.00
20839;DHT22;10580;51.092;6.828;2023-05-07T14:30:45;20.70;1.00
20839;DHT22;10580;51.092;6.828;2023-05-07T14:33:11;20.70;7.00
20839;DHT22;10580;51.092;6.828;2023-05-07T14:35:51;20.70;19.90
20839;DHT22;10580;51.092;6.828;2023-05-07T14:38:16;20.70;34.80
20839;DHT22;10580;51.092;6.828;2023-05-07T14:40:42;20.60;99.90
20839;DHT22;10580;51.092;6.828;2023-05-07T14:43:07;20.50;21.80
20839;DHT22;10580;51.092;6.828;2023-05-07T14:45:33;20.20;39.20
20839;DHT22;10580;51.092;6.828;2023-05-07T14:47:58;20.10;1.00
20839;DHT22;10580;51.092;6.828;2023-05-07T14:50:24;20.00;1.00
20839;DHT22;10580;51.092;6.828;2023-05-07T14:52:50;20.00;1.00
20839;DHT22;10580;51.092;6.828;2023-05-07T14:55:15;20.00;1.00
20839;DHT22;10580;51.092;6.828;2023-05-07T14:57:41;19.90;1.00
20839;DHT22;10580;51.092;6.828;2023-05-07T15:00:07;19.80;99.90
20839;DHT22;10580;51.092;6.828;2023-05-07T15:02:34;19.70;28.00
20839;DHT22;10580;51.092;6.828;2023-05-07T15:04:59;19.70;55.30
20839;DHT22;10580;51.092;6.828;2023-05-07T15:07:25;19.80;99.90
20839;DHT22;10580;51.092;6.828;2023-05-07T15:09:51;19.70;1.00
20839;DHT22;10580;51.092;6.828;2023-05-07T15:12:17;19.70;1.00
20839;DHT22;10580;51.092;6.828;2023-05-07T15:14:42;19.90;1.00
20839;DHT22;10580;51.092;6.828;2023-05-07T15:17:08;20.00;99.90
20839;DHT22;10580;51.092;6.828;2023-05-07T15:19:33;19.90;1.00
20839;DHT22;10580;51.092;6.828;2023-05-07T15:22:00;20.00;1.00
20839;DHT22;10580;51.092;6.828;2023-05-07T15:24:29;19.90;17.90
20839;DHT22;10580;51.092;6.828;2023-05-07T15:26:55;19.80;99.90
20839;DHT22;10580;51.092;6.828;2023-05-07T15:29:20;19.80;57.00
20839;DHT22;10580;51.092;6.828;2023-05-07T15:31:46;19.80;99.90
20839;DHT22;10580;51.092;6.828;2023-05-07T15:34:12;19.90;99.90
20839;DHT22;10580;51.092;6.828;2023-05-07T15:36:40;19.70;1.00
20839;DHT22;10580;51.092;6.828;2023-05-07T15:39:15;19.60;99.90
20839;DHT22;10580;51.092;6.828;2023-05-07T15:41:41;19.20;99.90
20839;DHT22;10580;51.092;6.828;2023-05-07T15:44:07;19.60;99.90
20839;DHT22;10580;51.092;6.828;2023-05-07T15:46:32;19.70;99.90
20839;DHT22;10580;51.092;6.828;2023-05-07T15:49:01;19.70;99.90
20839;DHT22;10580;51.092;6.828;2023-05-07T15:51:27;19.70;99.90
20839;DHT22;10580;51.092;6.828;2023-05-07T15:53:53;19.80;99.90
20839;DHT22;10580;51.092;6.828;2023-05-07T15:56:19;20.00;99.90
20839;DHT22;10580;51.092;6.828;2023-05-07T15:58:45;20.10;99.90
20839;DHT22;10580;51.092;6.828;2023-05-07T16:01:11;20.10;99.90
20839;DHT22;10580;51.092;6.828;2023-05-07T16:03:37;19.90;11.20
20839;DHT22;10580;51.092;6.828;2023-05-07T16:06:03;19.90;17.70
20839;DHT22;10580;51.092;6.828;2023-05-07T16:08:29;20.00;29.40
20839;DHT22;10580;51.092;6.828;2023-05-07T16:10:55;20.00;32.20
20839;DHT22;10580;51.092;6.828;2023-05-07T16:13:20;20.00;35.70
20839;DHT22;10580;51.092;6.828;2023-05-07T16:15:48;20.00;42.10
20839;DHT22;10580;51.092;6.828;2023-05-07T16:18:14;20.00;52.30